createdAt,value
2023-04-13T00:00:56.049Z,51.16
2023-04-13T00:03:24.397Z,50.81
2023-04-13T00:05:54.837Z,50.89
2023-04-13T00:08:23.986Z,51.35
2023-04-13T00:10:52.009Z,51.72
2023-04-13T00:13:19.946Z,51.87
2023-04-13T00:15:47.860Z,51.67
2023-04-13T00:18:17.240Z,51.37
2023-04-13T00:20:46.605Z,50.81
2023-04-13T00:23:14.514Z,50.77
2023-04-13T00:25:42.510Z,50.39
2023-04-13T00:28:10.576Z,50.22
2023-04-13T00:30:38.702Z,50.22
2023-04-13T00:33:06.955Z,49.80
2023-04-13T00:35:36.394Z,49.85
2023-04-13T00:38:04.513Z,49.78
2023-04-13T00:40:33.181Z,49.67
2023-04-13T00:43:02.425Z,50.04
2023-04-13T00:45:31.542Z,50.34
2023-04-13T00:48:00.162Z,49.95
2023-04-13T00:50:28.395Z,50.15
2023-04-13T00:52:58.250Z,50.41
2023-04-13T00:55:27.853Z,49.79
2023-04-13T00:57:56.081Z,50.65
2023-04-13T01:00:25.787Z,50.18
2023-04-13T01:02:56.090Z,50.09
2023-04-13T01:05:25.744Z,49.51
2023-04-13T01:08:00.617Z,49.58
2023-04-13T01:10:29.900Z,49.58
2023-04-13T01:13:03.442Z,49.78
2023-04-13T01:15:34.873Z,49.60
2023-04-13T01:18:07.360Z,49.33
2023-04-13T01:20:38.174Z,48.35
2023-04-13T01:23:09.483Z,48.95
2023-04-13T01:25:42.951Z,49.03
2023-04-13T01:28:14.622Z,48.88
2023-04-13T01:30:43.003Z,48.67
2023-04-13T01:33:11.186Z,48.96
2023-04-13T01:35:40.053Z,48.86
2023-04-13T01:38:10.045Z,48.45
2023-04-13T01:40:41.250Z,48.54
2023-04-13T01:43:12.244Z,48.27
2023-04-13T01:45:51.723Z,48.97
2023-04-13T01:48:22.328Z,49.37
2023-04-13T01:51:13.529Z,49.27
2023-04-13T01:53:49.415Z,49.10
2023-04-13T01:56:23.699Z,48.82
2023-04-13T01:58:59.976Z,48.42
2023-04-13T02:01:32.323Z,48.45
2023-04-13T02:04:01.592Z,48.11
2023-04-13T02:06:32.202Z,48.02
2023-04-13T02:09:06.409Z,47.56
2023-04-13T02:11:34.970Z,48.57
2023-04-13T02:14:06.378Z,49.07
2023-04-13T02:16:34.647Z,49.64
2023-04-13T02:19:02.574Z,49.26
2023-04-13T02:21:33.165Z,49.48
2023-04-13T02:24:01.344Z,49.94
2023-04-13T02:26:29.400Z,49.98
2023-04-13T02:28:58.330Z,50.49
2023-04-13T02:31:27.692Z,50.04
2023-04-13T02:33:55.957Z,50.03
2023-04-13T02:36:25.429Z,49.85
2023-04-13T02:38:57.752Z,50.21
2023-04-13T02:41:34.263Z,51.02
2023-04-13T02:44:04.268Z,50.41
2023-04-13T02:46:45.973Z,50.41
2023-04-13T02:49:17.558Z,50.94
2023-04-13T02:52:13.261Z,50.50
2023-04-13T02:54:48.867Z,51.15
2023-04-13T02:57:17.657Z,51.16
2023-04-13T02:59:45.874Z,51.82
2023-04-13T03:02:16.014Z,51.90
2023-04-13T03:04:44.548Z,51.23
2023-04-13T03:07:14.603Z,51.42
2023-04-13T03:09:47.310Z,51.04
2023-04-13T03:12:17.097Z,51.81
2023-04-13T03:14:47.379Z,51.93
2023-04-13T03:17:19.794Z,51.76
2023-04-13T03:19:49.603Z,51.95
2023-04-13T03:22:19.795Z,51.87
2023-04-13T03:24:48.327Z,51.91
2023-04-13T03:27:23.849Z,51.04
2023-04-13T03:29:54.539Z,51.38
2023-04-13T03:32:25.569Z,51.78
2023-04-13T03:34:59.668Z,51.84
2023-04-13T03:37:30.220Z,51.69
2023-04-13T03:40:05.173Z,51.75
2023-04-13T03:42:41.558Z,51.46
2023-04-13T03:45:10.680Z,51.29
2023-04-13T03:47:41.060Z,51.26
2023-04-13T03:50:11.400Z,51.68
2023-04-13T03:52:40.802Z,52.12
2023-04-13T03:55:13.923Z,52.00
2023-04-13T03:57:43.615Z,51.23
2023-04-13T04:00:17.312Z,51.47
2023-04-13T04:02:55.676Z,51.36
2023-04-13T04:05:31.366Z,51.48
2023-04-13T04:08:05.504Z,51.24
2023-04-13T04:10:33.624Z,50.96
2023-04-13T04:13:02.873Z,51.48
2023-04-13T04:15:36.691Z,50.91
2023-04-13T04:18:08.730Z,50.51
2023-04-13T04:20:39.232Z,50.53
2023-04-13T04:23:09.873Z,50.22
2023-04-13T04:25:47.213Z,50.79
2023-04-13T04:28:18.090Z,50.81
2023-04-13T04:30:53.994Z,51.22
2023-04-13T04:33:29.358Z,51.07
2023-04-13T04:35:57.615Z,51.35
2023-04-13T04:38:32.691Z,51.18
2023-04-13T04:41:06.693Z,51.01
2023-04-13T04:43:35.817Z,50.90
2023-04-13T04:46:04.806Z,50.81
2023-04-13T04:48:37.359Z,50.16
2023-04-13T04:51:06.110Z,50.67
2023-04-13T04:53:36.222Z,50.63
2023-04-13T04:56:09.094Z,50.85
2023-04-13T04:58:44.400Z,51.15
2023-04-13T05:01:12.816Z,51.37
2023-04-13T05:03:42.763Z,51.52
2023-04-13T05:06:33.734Z,50.54
2023-04-13T05:09:03.334Z,50.77
2023-04-13T05:11:34.870Z,50.91
2023-04-13T05:14:04.880Z,50.69
2023-04-13T05:16:34.313Z,50.70
2023-04-13T05:19:12.634Z,50.70
2023-04-13T05:21:50.128Z,50.56
2023-04-13T05:24:18.766Z,50.81
2023-04-13T05:26:47.320Z,50.86
2023-04-13T05:29:21.549Z,50.38
2023-04-13T05:31:50.423Z,50.40
2023-04-13T05:34:21.156Z,50.48
2023-04-13T05:37:16.113Z,50.70
2023-04-13T05:39:45.197Z,50.98
2023-04-13T05:42:13.897Z,50.65
2023-04-13T05:44:45.044Z,50.75
2023-04-13T05:47:14.236Z,50.13
2023-04-13T05:49:46.684Z,50.45
2023-04-13T05:52:16.332Z,50.31
2023-04-13T05:54:48.021Z,50.34
2023-04-13T05:57:16.322Z,50.12
2023-04-13T05:59:48.084Z,50.13
2023-04-13T06:02:22.597Z,49.86
2023-04-13T06:04:55.336Z,50.17
2023-04-13T06:07:26.074Z,49.84
2023-04-13T06:09:54.209Z,49.83
2023-04-13T06:12:24.016Z,49.36
2023-04-13T06:14:53.849Z,49.47
2023-04-13T06:17:21.895Z,48.69
2023-04-13T06:19:49.800Z,48.35
2023-04-13T06:22:19.122Z,47.97
2023-04-13T06:24:47.221Z,47.28
2023-04-13T06:27:15.416Z,47.03
2023-04-13T06:29:46.192Z,47.15
2023-04-13T06:32:14.258Z,47.07
2023-04-13T06:34:45.683Z,47.42
2023-04-13T06:37:14.499Z,47.50
2023-04-13T06:39:49.024Z,47.69
2023-04-13T06:42:18.075Z,47.49
2023-04-13T06:45:24.091Z,47.82
2023-04-13T06:47:53.614Z,47.78
2023-04-13T06:50:21.613Z,47.29
2023-04-13T06:52:50.112Z,47.13
2023-04-13T06:55:20.723Z,47.50
2023-04-13T06:57:49.042Z,46.83
2023-04-13T07:00:29.082Z,46.64
2023-04-13T07:03:00.354Z,46.48
2023-04-13T07:05:29.075Z,45.67
2023-04-13T07:08:04.073Z,45.41
2023-04-13T07:10:37.514Z,44.94
2023-04-13T07:13:05.885Z,44.55
2023-04-13T07:15:34.803Z,43.39
2023-04-13T07:18:03.249Z,42.91
2023-04-13T07:20:31.293Z,42.71
2023-04-13T07:22:59.538Z,42.50
2023-04-13T07:25:27.703Z,42.69
2023-04-13T07:27:57.085Z,43.00
2023-04-13T07:30:25.682Z,42.77
2023-04-13T07:32:53.736Z,43.32
2023-04-13T07:35:23.708Z,43.20
2023-04-13T07:37:53.325Z,43.40
2023-04-13T07:40:22.866Z,43.03
2023-04-13T07:42:54.719Z,42.90
2023-04-13T07:45:25.289Z,42.99
2023-04-13T07:47:54.743Z,43.01
2023-04-13T07:50:23.913Z,43.37
2023-04-13T07:52:52.804Z,43.20
2023-04-13T07:55:23.674Z,42.76
2023-04-13T07:57:53.045Z,42.86
2023-04-13T08:00:23.013Z,42.98
2023-04-13T08:02:56.875Z,43.17
2023-04-13T08:05:26.667Z,43.39
2023-04-13T08:07:54.936Z,42.83
2023-04-13T08:10:23.402Z,42.49
2023-04-13T08:12:51.973Z,42.62
2023-04-13T08:15:23.694Z,42.50
2023-04-13T08:17:54.041Z,42.67
2023-04-13T08:20:24.490Z,42.66
2023-04-13T08:22:54.961Z,42.95
2023-04-13T08:25:23.092Z,42.77
2023-04-13T08:27:51.368Z,43.00
2023-04-13T08:30:20.264Z,42.74
2023-04-13T08:32:54.866Z,43.08
2023-04-13T08:35:25.906Z,42.24
2023-04-13T08:37:55.277Z,42.35
2023-04-13T08:40:23.467Z,42.17
2023-04-13T08:42:54.184Z,43.11
2023-04-13T08:45:22.563Z,42.63
2023-04-13T08:47:51.732Z,42.37
2023-04-13T08:50:24.959Z,42.55
2023-04-13T08:52:55.885Z,42.42
2023-04-13T08:55:26.489Z,42.44
2023-04-13T08:57:58.846Z,42.59
2023-04-13T09:00:27.597Z,43.14
2023-04-13T09:03:05.647Z,43.54
2023-04-13T09:05:42.153Z,43.75
2023-04-13T09:08:13.717Z,44.13
2023-04-13T09:10:44.846Z,43.49
2023-04-13T09:13:13.351Z,43.23
2023-04-13T09:15:42.814Z,43.61
2023-04-13T09:18:20.450Z,43.31
2023-04-13T09:20:58.885Z,43.30
2023-04-13T09:23:26.998Z,43.43
2023-04-13T09:26:05.420Z,43.44
2023-04-13T09:28:33.524Z,43.19
2023-04-13T09:31:05.648Z,42.89
2023-04-13T09:33:36.997Z,42.83
2023-04-13T09:36:14.137Z,42.66
2023-04-13T09:38:43.719Z,42.66
2023-04-13T09:41:11.681Z,42.82
2023-04-13T09:43:40.413Z,42.46
2023-04-13T09:46:13.631Z,42.72
2023-04-13T09:48:41.849Z,42.55
2023-04-13T09:51:09.844Z,42.36
2023-04-13T09:53:43.689Z,42.05
2023-04-13T09:56:12.149Z,41.92
2023-04-13T09:58:43.886Z,41.50
2023-04-13T10:01:11.926Z,42.04
2023-04-13T10:03:40.201Z,41.14
2023-04-13T10:06:08.924Z,41.33
2023-04-13T10:08:39.480Z,41.69
2023-04-13T10:11:13.134Z,41.38
2023-04-13T10:13:50.731Z,41.73
2023-04-13T10:16:33.351Z,41.93
2023-04-13T10:19:03.033Z,42.20
2023-04-13T10:21:35.619Z,42.01
2023-04-13T10:24:11.332Z,41.57
2023-04-13T10:26:41.873Z,40.82
2023-04-13T10:29:11.725Z,41.25
2023-04-13T10:31:39.956Z,41.36
2023-04-13T10:34:09.861Z,40.59
2023-04-13T10:36:39.559Z,40.32
2023-04-13T10:39:10.646Z,39.96
2023-04-13T10:41:38.835Z,39.88
2023-04-13T10:44:09.048Z,40.01
2023-04-13T10:46:38.330Z,39.32
2023-04-13T10:49:07.269Z,38.24
2023-04-13T10:51:41.564Z,38.32
2023-04-13T10:54:11.417Z,38.69
2023-04-13T10:56:40.253Z,39.04
2023-04-13T10:59:09.651Z,38.99
2023-04-13T11:01:38.710Z,38.98
2023-04-13T11:04:09.906Z,38.75
2023-04-13T11:06:42.257Z,38.55
2023-04-13T11:09:13.129Z,38.31
2023-04-13T11:11:43.584Z,38.66
2023-04-13T11:14:21.390Z,38.47
2023-04-13T11:16:50.208Z,38.61
2023-04-13T11:19:19.073Z,38.61
2023-04-13T11:21:55.015Z,37.93
2023-04-13T11:24:34.410Z,38.46
2023-04-13T11:27:02.476Z,38.90
2023-04-13T11:29:31.885Z,37.68
2023-04-13T11:32:00.090Z,37.68
2023-04-13T11:34:29.200Z,37.69
2023-04-13T11:37:06.062Z,37.68
2023-04-13T11:39:38.599Z,38.05
2023-04-13T11:42:08.148Z,38.83
2023-04-13T11:44:37.933Z,38.84
2023-04-13T11:47:08.309Z,39.06
2023-04-13T11:49:36.754Z,38.70
2023-04-13T11:52:04.901Z,38.07
2023-04-13T11:54:32.849Z,38.58
2023-04-13T11:57:02.862Z,38.86
2023-04-13T11:59:31.240Z,38.94
2023-04-13T12:02:05.295Z,38.81
2023-04-13T12:04:41.012Z,38.39
2023-04-13T12:07:13.964Z,38.58
2023-04-13T12:09:56.058Z,38.08
2023-04-13T12:17:40.076Z,37.90
2023-04-13T12:20:15.675Z,38.45
2023-04-13T12:25:20.367Z,38.23
2023-04-13T12:27:52.802Z,37.81
2023-04-13T12:30:22.763Z,38.20
2023-04-13T12:32:53.825Z,37.77
2023-04-13T12:35:22.395Z,38.15
2023-04-13T12:37:52.528Z,38.50
2023-04-13T12:40:20.728Z,39.19
2023-04-13T12:42:49.344Z,38.78
2023-04-13T12:45:18.438Z,38.16
2023-04-13T12:47:46.762Z,38.09
2023-04-13T12:50:16.248Z,37.56
2023-04-13T12:52:45.900Z,38.01
2023-04-13T12:55:14.196Z,37.68
2023-04-13T12:57:43.339Z,37.37
2023-04-13T13:00:12.808Z,37.38
2023-04-13T13:02:40.973Z,37.98
2023-04-13T13:05:11.233Z,38.00
2023-04-13T13:07:41.275Z,38.34
2023-04-13T13:10:25.870Z,38.28
2023-04-13T13:12:57.297Z,38.03
2023-04-13T13:15:25.438Z,37.92
2023-04-13T13:17:53.877Z,37.81
2023-04-13T13:20:22.522Z,37.61
2023-04-13T13:22:52.523Z,37.96
2023-04-13T13:25:20.641Z,37.90
2023-04-13T13:30:19.677Z,39.07
2023-04-13T13:32:47.669Z,38.59
2023-04-13T13:35:15.733Z,37.73
2023-04-13T13:37:43.737Z,37.51
2023-04-13T13:40:13.900Z,36.87
2023-04-13T13:42:52.003Z,36.08
2023-04-13T13:45:20.859Z,36.56
2023-04-13T13:47:52.142Z,36.43
2023-04-13T13:50:21.754Z,37.01
2023-04-13T13:53:03.177Z,37.19
2023-04-13T13:55:37.812Z,37.20
2023-04-13T13:58:05.939Z,36.92
2023-04-13T14:00:34.227Z,36.38
2023-04-13T14:03:02.406Z,36.48
2023-04-13T14:05:30.595Z,36.52
2023-04-13T14:07:58.681Z,36.04
2023-04-13T14:10:27.137Z,35.43
2023-04-13T14:12:57.019Z,35.69
2023-04-13T14:15:25.613Z,36.19
2023-04-13T14:18:06.401Z,36.12
2023-04-13T14:20:39.559Z,35.15
2023-04-13T14:23:10.382Z,35.18
2023-04-13T14:25:39.116Z,35.33
2023-04-13T14:28:09.293Z,35.05
2023-04-13T14:30:37.659Z,35.06
2023-04-13T14:33:07.415Z,35.92
2023-04-13T14:35:38.758Z,35.48
2023-04-13T14:38:08.252Z,34.64
2023-04-13T14:40:36.589Z,34.88
2023-04-13T14:43:04.940Z,34.97
2023-04-13T14:45:34.521Z,35.29
2023-04-13T14:48:02.545Z,35.04
2023-04-13T14:50:31.090Z,34.87
2023-04-13T14:52:59.087Z,34.90
2023-04-13T14:55:27.503Z,34.68
2023-04-13T14:57:58.316Z,34.53
2023-04-13T15:00:38.879Z,34.58
2023-04-13T15:03:08.909Z,34.51
2023-04-13T15:05:38.556Z,34.80
2023-04-13T15:08:07.768Z,34.95
2023-04-13T15:10:35.777Z,34.71
2023-04-13T15:13:04.332Z,35.04
2023-04-13T15:15:33.629Z,35.07
2023-04-13T15:18:03.149Z,34.79
2023-04-13T15:20:35.332Z,35.15
2023-04-13T15:23:03.330Z,35.90
2023-04-13T15:25:31.316Z,36.13
2023-04-13T15:27:59.494Z,35.97
2023-04-13T15:30:28.338Z,35.28
2023-04-13T15:32:56.894Z,35.14
2023-04-13T15:35:26.465Z,34.19
2023-04-13T15:37:56.526Z,34.57
2023-04-13T15:40:26.077Z,35.06
2023-04-13T15:42:54.095Z,36.01
2023-04-13T15:45:22.458Z,36.25
2023-04-13T15:47:51.626Z,36.81
2023-04-13T15:50:20.037Z,37.37
2023-04-13T15:52:47.981Z,37.50
2023-04-13T15:55:17.419Z,37.54
2023-04-13T15:57:45.445Z,36.80
2023-04-13T16:00:15.392Z,37.38
2023-04-13T16:02:44.820Z,37.46
2023-04-13T16:05:13.256Z,37.90
2023-04-13T16:07:41.724Z,37.97
2023-04-13T16:10:15.475Z,37.95
2023-04-13T16:12:45.637Z,37.81
2023-04-13T16:15:13.817Z,36.12
2023-04-13T16:17:44.164Z,35.72
2023-04-13T16:20:19.556Z,36.11
2023-04-13T16:22:50.633Z,36.32
2023-04-13T16:25:19.437Z,35.89
2023-04-13T16:27:49.046Z,36.00
2023-04-13T16:30:19.352Z,36.95
2023-04-13T16:32:47.468Z,37.34
2023-04-13T16:35:16.673Z,38.25
2023-04-13T16:37:45.213Z,37.84
2023-04-13T16:40:16.206Z,37.90
2023-04-13T16:42:44.488Z,38.05
2023-04-13T16:45:15.206Z,37.07
2023-04-13T16:47:43.803Z,37.25
2023-04-13T16:50:13.354Z,37.50
2023-04-13T16:52:41.804Z,37.40
2023-04-13T16:55:13.872Z,37.60
2023-04-13T16:57:46.404Z,38.17
2023-04-13T17:00:18.440Z,38.43
2023-04-13T17:02:46.925Z,38.43
2023-04-13T17:05:15.207Z,38.16
2023-04-13T17:07:43.787Z,38.31
2023-04-13T17:10:13.553Z,39.19
2023-04-13T17:12:41.762Z,39.62
2023-04-13T17:15:10.743Z,40.23
2023-04-13T17:17:41.960Z,40.55
2023-04-13T17:20:11.252Z,40.80
2023-04-13T17:22:39.221Z,40.83
2023-04-13T17:25:08.382Z,40.97
2023-04-13T17:27:36.728Z,41.19
2023-04-13T17:30:05.748Z,41.14
2023-04-13T17:32:33.768Z,41.34
2023-04-13T17:35:03.222Z,41.41
2023-04-13T17:37:31.147Z,41.52
2023-04-13T17:39:59.218Z,41.23
2023-04-13T17:42:28.354Z,41.30
2023-04-13T17:44:57.673Z,41.68
2023-04-13T17:47:25.861Z,41.72
2023-04-13T17:49:54.428Z,42.11
2023-04-13T17:52:23.748Z,42.66
2023-04-13T17:54:51.702Z,42.81
2023-04-13T17:57:19.670Z,43.41
2023-04-13T17:59:47.770Z,43.78
2023-04-13T18:02:15.868Z,43.85
2023-04-13T18:04:43.893Z,44.14
2023-04-13T18:07:11.943Z,44.71
2023-04-13T18:09:41.237Z,44.56
2023-04-13T18:12:09.368Z,44.51
2023-04-13T18:14:37.236Z,44.30
2023-04-13T18:17:05.680Z,44.00
2023-04-13T18:19:34.670Z,44.23
2023-04-13T18:22:04.117Z,44.21
2023-04-13T18:24:32.325Z,44.31
2023-04-13T18:27:01.885Z,44.39
2023-04-13T18:29:31.618Z,44.40
2023-04-13T18:32:00.337Z,44.43
2023-04-13T18:34:30.192Z,44.61
2023-04-13T18:36:58.605Z,44.60
2023-04-13T18:39:27.039Z,44.73
2023-04-13T18:41:55.062Z,44.77
2023-04-13T18:44:24.539Z,45.05
2023-04-13T18:46:52.653Z,45.23
2023-04-13T18:49:20.772Z,45.41
2023-04-13T18:51:48.881Z,45.63
2023-04-13T18:54:16.782Z,45.63
2023-04-13T18:56:44.856Z,45.88
2023-04-13T18:59:13.219Z,45.93
2023-04-13T19:01:42.640Z,46.06
2023-04-13T19:04:10.745Z,46.07
2023-04-13T19:06:39.956Z,46.12
2023-04-13T19:09:08.323Z,46.23
2023-04-13T19:11:46.570Z,46.61
2023-04-13T19:14:17.276Z,46.34
2023-04-13T19:16:47.634Z,46.70
2023-04-13T19:19:16.104Z,46.51
2023-04-13T19:21:44.478Z,46.69
2023-04-13T19:24:13.325Z,46.87
2023-04-13T19:26:41.412Z,46.89
2023-04-13T19:29:12.696Z,47.16
2023-04-13T19:31:42.774Z,47.54
2023-04-13T19:34:13.033Z,47.43
2023-04-13T19:36:43.552Z,47.54
2023-04-13T19:39:11.773Z,47.88
2023-04-13T19:41:40.843Z,47.88
2023-04-13T19:44:09.120Z,47.68
2023-04-13T19:46:37.162Z,48.03
2023-04-13T19:49:05.395Z,48.12
2023-04-13T19:51:34.998Z,48.16
2023-04-13T19:54:04.982Z,47.97
2023-04-13T19:56:36.341Z,48.04
2023-04-13T19:59:04.969Z,48.11
2023-04-13T20:01:33.638Z,48.32
2023-04-13T20:04:03.785Z,48.22
2023-04-13T20:06:33.070Z,47.86
2023-04-13T20:09:12.866Z,47.85
2023-04-13T20:11:41.799Z,47.80
2023-04-13T20:14:11.364Z,47.92
2023-04-13T20:16:39.619Z,48.15
2023-04-13T20:19:09.601Z,48.00
2023-04-13T20:21:38.045Z,48.30
2023-04-13T20:24:06.243Z,48.32
2023-04-13T20:26:36.048Z,47.93
2023-04-13T20:29:05.199Z,48.05
2023-04-13T20:31:33.880Z,48.17
2023-04-13T20:34:03.269Z,48.18
2023-04-13T20:36:31.725Z,48.44
2023-04-13T20:39:01.672Z,48.09
2023-04-13T20:41:32.246Z,48.39
2023-04-13T20:44:03.524Z,48.15
2023-04-13T20:46:35.742Z,48.61
2023-04-13T20:49:05.809Z,48.52
2023-04-13T20:51:34.147Z,48.76
2023-04-13T20:54:05.668Z,48.91
2023-04-13T20:56:34.278Z,49.35
2023-04-13T20:59:04.312Z,49.05
2023-04-13T21:01:32.749Z,49.22
2023-04-13T21:04:01.689Z,49.21
2023-04-13T21:06:30.137Z,49.17
2023-04-13T21:08:59.912Z,49.48
2023-04-13T21:11:28.057Z,49.30
2023-04-13T21:13:57.678Z,49.64
2023-04-13T21:16:27.431Z,50.12
2023-04-13T21:18:56.031Z,50.01
2023-04-13T21:21:26.934Z,50.04
2023-04-13T21:23:55.434Z,50.15
2023-04-13T21:26:23.586Z,50.19
2023-04-13T21:28:51.749Z,50.31
2023-04-13T21:31:20.143Z,50.88
2023-04-13T21:33:50.946Z,50.94
2023-04-13T21:38:53.115Z,51.70
2023-04-13T21:41:22.984Z,51.51
2023-04-13T21:43:51.031Z,52.14
2023-04-13T21:46:19.316Z,52.33
2023-04-13T21:48:47.297Z,52.50
2023-04-13T21:51:16.601Z,52.63
2023-04-13T21:53:44.689Z,52.89
2023-04-13T21:56:12.600Z,52.74
2023-04-13T21:58:41.200Z,53.38
2023-04-13T22:01:09.541Z,52.74
2023-04-13T22:03:38.225Z,53.64
2023-04-13T22:06:07.507Z,53.45
2023-04-13T22:08:36.812Z,53.48
2023-04-13T22:11:05.028Z,53.46
2023-04-13T22:13:34.223Z,53.46
2023-04-13T22:16:02.240Z,53.48
2023-04-13T22:18:30.543Z,53.80
2023-04-13T22:20:59.549Z,54.11
2023-04-13T22:23:27.689Z,53.83
2023-04-13T22:25:58.822Z,53.66
2023-04-13T22:28:27.148Z,54.03
2023-04-13T22:30:55.135Z,54.05
2023-04-13T22:33:23.302Z,54.01
2023-04-13T22:35:51.949Z,54.15
2023-04-13T22:38:20.006Z,53.79
2023-04-13T22:40:47.965Z,53.96
2023-04-13T22:43:17.719Z,54.16
2023-04-13T22:45:45.796Z,54.18
2023-04-13T22:48:15.943Z,54.55
2023-04-13T22:50:46.564Z,54.41
2023-04-13T22:53:15.645Z,54.48
2023-04-13T22:55:43.866Z,54.52
2023-04-13T22:58:11.857Z,54.57
2023-04-13T23:00:41.615Z,54.91
2023-04-13T23:03:09.573Z,55.27
2023-04-13T23:05:37.638Z,55.55
2023-04-13T23:08:05.825Z,55.20
2023-04-13T23:10:33.748Z,55.04
2023-04-13T23:13:01.657Z,55.44
2023-04-13T23:15:29.831Z,55.46
2023-04-13T23:18:01.646Z,55.46
2023-04-13T23:20:30.141Z,55.50
2023-04-13T23:22:58.067Z,55.62
2023-04-13T23:25:26.217Z,55.46
2023-04-13T23:27:54.107Z,55.47
2023-04-13T23:30:22.078Z,55.23
2023-04-13T23:32:50.601Z,55.09
2023-04-13T23:35:20.067Z,55.33
2023-04-13T23:37:48.316Z,55.02
2023-04-13T23:40:17.413Z,55.40
2023-04-13T23:42:46.421Z,55.21
2023-04-13T23:45:14.605Z,55.18
2023-04-13T23:47:42.696Z,55.28
2023-04-13T23:50:11.548Z,54.96
2023-04-13T23:52:40.928Z,55.25
2023-04-13T23:55:09.627Z,55.34
2023-04-13T23:57:37.519Z,55.24
